createdAt,value
2022-08-17T00:02:01.775Z,95.21
2022-08-17T00:04:32.941Z,96.12
2022-08-17T00:06:59.345Z,96.92
2022-08-17T00:09:25.706Z,97.06
2022-08-17T00:12:34.615Z,97.23
2022-08-17T00:14:38.492Z,97.17
2022-08-17T00:17:06.360Z,97.75
2022-08-17T00:19:32.872Z,97.77
2022-08-17T00:22:35.207Z,98.32
2022-08-17T00:24:49.770Z,97.54
2022-08-17T00:27:16.454Z,97.64
2022-08-17T00:29:43.901Z,97.83
2022-08-17T00:33:14.381Z,97.90
2022-08-17T00:34:56.880Z,97.33
2022-08-17T00:37:23.264Z,96.22
2022-08-17T00:39:49.706Z,96.46
2022-08-17T00:42:18.652Z,96.45
2022-08-17T00:44:45.500Z,96.65
2022-08-17T00:47:11.915Z,97.49
2022-08-17T00:49:38.285Z,97.83
2022-08-17T00:52:15.157Z,97.85
2022-08-17T00:54:44.897Z,97.87
2022-08-17T00:57:32.588Z,97.92
2022-08-17T01:00:12.028Z,98.68
2022-08-17T01:02:43.913Z,98.63
2022-08-17T01:05:18.671Z,99.08
2022-08-17T01:07:47.778Z,99.26
2022-08-17T01:10:59.966Z,99.58
2022-08-17T01:13:02.420Z,99.66
2022-08-17T01:15:35.907Z,99.55
2022-08-17T01:18:03.775Z,99.53
2022-08-17T01:20:30.355Z,99.91
2022-08-17T01:23:09.454Z,100.00
2022-08-17T01:25:36.757Z,99.78
2022-08-17T01:28:03.822Z,100.00
2022-08-17T01:30:57.013Z,100.00
2022-08-17T01:33:16.689Z,100.00
2022-08-17T01:35:43.120Z,100.00
2022-08-17T01:38:09.557Z,100.00
2022-08-17T01:40:46.389Z,100.00
2022-08-17T01:43:23.974Z,100.00
2022-08-17T01:46:02.748Z,100.00
2022-08-17T01:48:32.656Z,100.00
2022-08-17T01:50:59.890Z,100.00
2022-08-17T01:53:39.468Z,100.00
2022-08-17T01:56:10.229Z,100.00
2022-08-17T01:58:37.783Z,100.00
2022-08-17T02:01:06.246Z,100.00
2022-08-17T02:03:34.483Z,100.00
2022-08-17T02:06:01.308Z,100.00
2022-08-17T02:08:38.725Z,100.00
2022-08-17T02:11:19.176Z,100.00
2022-08-17T02:13:48.690Z,100.00
2022-08-17T02:16:24.344Z,100.00
2022-08-17T02:18:50.772Z,100.00
2022-08-17T02:21:17.278Z,100.00
2022-08-17T02:23:47.490Z,100.00
2022-08-17T02:26:24.184Z,100.00
2022-08-17T02:28:53.499Z,100.00
2022-08-17T02:31:21.182Z,100.00
2022-08-17T02:33:47.603Z,100.00
2022-08-17T02:36:27.504Z,100.00
2022-08-17T02:38:54.059Z,100.00
2022-08-17T02:41:20.534Z,100.00
2022-08-17T02:43:46.893Z,100.00
2022-08-17T02:46:13.239Z,100.00
2022-08-17T02:48:39.959Z,100.00
2022-08-17T02:51:06.852Z,100.00
2022-08-17T02:53:35.862Z,100.00
2022-08-17T02:56:03.308Z,100.00
2022-08-17T02:58:35.413Z,100.00
2022-08-17T03:01:04.953Z,100.00
2022-08-17T03:03:31.716Z,100.00
2022-08-17T03:05:58.130Z,100.00
2022-08-17T03:08:25.284Z,100.00
2022-08-17T03:10:51.843Z,100.00
2022-08-17T03:13:18.268Z,100.00
2022-08-17T03:15:46.413Z,100.00
2022-08-17T03:18:24.987Z,100.00
2022-08-17T03:20:55.160Z,100.00
2022-08-17T03:23:24.299Z,100.00
2022-08-17T03:25:53.113Z,100.00
2022-08-17T03:28:20.894Z,100.00
2022-08-17T03:30:47.447Z,100.00
2022-08-17T03:33:14.554Z,100.00
2022-08-17T03:35:41.160Z,100.00
2022-08-17T03:38:12.182Z,100.00
2022-08-17T03:40:57.810Z,100.00
2022-08-17T03:43:27.940Z,100.00
2022-08-17T03:46:27.122Z,100.00
2022-08-17T03:49:19.128Z,100.00
2022-08-17T03:52:04.073Z,100.00
2022-08-17T03:54:49.182Z,100.00
2022-08-17T03:57:16.220Z,100.00
2022-08-17T03:59:43.039Z,100.00
2022-08-17T04:02:16.277Z,100.00
2022-08-17T04:04:42.793Z,100.00
2022-08-17T04:07:09.765Z,100.00
2022-08-17T04:09:36.632Z,100.00
2022-08-17T04:12:04.774Z,100.00
2022-08-17T04:14:36.271Z,100.00
2022-08-17T04:17:17.793Z,100.00
2022-08-17T04:19:44.866Z,100.00
2022-08-17T04:22:11.200Z,100.00
2022-08-17T04:24:57.578Z,100.00
2022-08-17T04:27:25.157Z,100.00
2022-08-17T04:29:55.031Z,100.00
2022-08-17T04:33:03.453Z,100.00
2022-08-17T04:35:09.703Z,100.00
2022-08-17T04:37:36.118Z,100.00
2022-08-17T04:40:21.471Z,100.00
2022-08-17T04:43:01.325Z,100.00
2022-08-17T04:45:32.240Z,100.00
2022-08-17T04:47:59.750Z,100.00
2022-08-17T04:50:26.494Z,100.00
2022-08-17T04:52:52.910Z,100.00
2022-08-17T04:55:19.329Z,100.00
2022-08-17T04:57:45.721Z,100.00
2022-08-17T05:00:12.600Z,100.00
2022-08-17T05:02:50.662Z,100.00
2022-08-17T05:05:24.462Z,100.00
2022-08-17T05:07:54.280Z,100.00
2022-08-17T05:10:21.846Z,100.00
2022-08-17T05:12:56.705Z,100.00
2022-08-17T05:15:23.070Z,100.00
2022-08-17T05:17:49.458Z,100.00
2022-08-17T05:20:15.838Z,100.00
2022-08-17T05:22:56.949Z,100.00
2022-08-17T05:25:27.891Z,100.00
2022-08-17T05:27:57.549Z,100.00
2022-08-17T05:30:26.538Z,100.00
2022-08-17T05:33:01.658Z,100.00
2022-08-17T05:35:31.322Z,99.07
2022-08-17T05:37:57.921Z,97.72
2022-08-17T05:40:26.369Z,96.50
2022-08-17T05:43:05.183Z,95.70
2022-08-17T05:45:54.455Z,95.31
2022-08-17T05:48:18.732Z,95.03
2022-08-17T05:51:06.020Z,95.17
2022-08-17T05:53:56.067Z,94.72
2022-08-17T05:56:37.709Z,94.38
2022-08-17T05:59:13.140Z,94.88
2022-08-17T06:01:48.496Z,95.48
2022-08-17T06:04:26.999Z,95.54
2022-08-17T06:07:31.847Z,94.48
2022-08-17T06:10:10.675Z,94.99
2022-08-17T06:13:05.191Z,94.60
2022-08-17T06:15:48.089Z,94.01
2022-08-17T06:18:18.598Z,92.87
2022-08-17T06:21:07.106Z,92.67
2022-08-17T06:23:41.392Z,90.78
2022-08-17T06:26:38.463Z,89.09
2022-08-17T06:29:22.925Z,87.89
2022-08-17T06:31:50.010Z,89.16
2022-08-17T06:34:16.775Z,88.50
2022-08-17T06:37:05.506Z,87.74
2022-08-17T06:39:39.537Z,87.48
2022-08-17T06:43:02.190Z,86.92
2022-08-17T06:45:03.519Z,86.39
2022-08-17T06:48:01.137Z,85.44
2022-08-17T06:50:39.932Z,84.80
2022-08-17T06:53:38.882Z,84.05
2022-08-17T06:56:18.761Z,84.38
2022-08-17T06:58:45.539Z,83.95
2022-08-17T07:01:18.925Z,84.29
2022-08-17T07:04:12.169Z,82.97
2022-08-17T07:06:48.903Z,82.84
2022-08-17T07:09:23.162Z,82.22
2022-08-17T07:11:52.535Z,82.51
2022-08-17T07:14:35.077Z,82.44
2022-08-17T07:17:06.786Z,81.24
2022-08-17T07:19:36.416Z,80.32
2022-08-17T07:22:50.494Z,80.37
2022-08-17T07:25:23.519Z,79.57
2022-08-17T07:28:02.553Z,79.66
2022-08-17T07:30:44.614Z,79.08
2022-08-17T07:33:19.880Z,78.19
2022-08-17T07:35:48.223Z,76.78
2022-08-17T07:38:25.770Z,77.03
2022-08-17T07:41:02.490Z,76.88
2022-08-17T07:43:35.232Z,75.10
2022-08-17T07:46:45.026Z,76.49
2022-08-17T07:49:12.471Z,74.90
2022-08-17T07:51:45.611Z,75.13
2022-08-17T07:54:15.136Z,74.91
2022-08-17T07:57:01.351Z,75.58
2022-08-17T07:59:33.312Z,76.72
2022-08-17T08:02:07.882Z,76.08
2022-08-17T08:04:59.789Z,75.90
2022-08-17T08:07:34.547Z,75.41
2022-08-17T08:10:10.865Z,74.83
2022-08-17T08:12:41.499Z,75.24
2022-08-17T08:15:44.996Z,75.26
2022-08-17T08:18:55.842Z,74.31
2022-08-17T08:21:47.084Z,74.37
2022-08-17T08:24:31.188Z,74.03
2022-08-17T08:27:07.033Z,73.63
2022-08-17T08:29:52.697Z,73.19
2022-08-17T08:32:24.077Z,73.35
2022-08-17T08:35:03.960Z,74.47
2022-08-17T08:37:43.634Z,74.04
2022-08-17T08:40:33.384Z,73.81
2022-08-17T08:43:22.534Z,73.38
2022-08-17T08:46:01.718Z,73.73
2022-08-17T08:48:52.910Z,75.03
2022-08-17T08:51:42.286Z,72.69
2022-08-17T08:54:34.354Z,70.73
2022-08-17T08:57:34.140Z,70.73
2022-08-17T09:00:14.606Z,71.35
2022-08-17T09:03:02.890Z,70.90
2022-08-17T09:06:04.294Z,70.51
2022-08-17T09:08:45.896Z,70.74
2022-08-17T09:11:12.203Z,67.73
2022-08-17T09:13:56.724Z,66.56
2022-08-17T09:16:29.994Z,65.28
2022-08-17T09:19:05.368Z,63.17
2022-08-17T09:21:47.804Z,62.56
2022-08-17T09:24:43.603Z,61.93
2022-08-17T09:27:25.432Z,63.05
2022-08-17T09:29:58.746Z,61.92
2022-08-17T09:32:37.883Z,61.23
2022-08-17T09:35:16.496Z,60.04
2022-08-17T09:38:03.972Z,59.13
2022-08-17T09:40:51.929Z,60.54
2022-08-17T09:43:41.294Z,60.33
2022-08-17T09:46:23.864Z,60.44
2022-08-17T09:49:04.349Z,61.01
2022-08-17T09:51:43.597Z,61.12
2022-08-17T09:54:38.660Z,59.48
2022-08-17T09:57:47.375Z,58.31
2022-08-17T10:00:27.530Z,58.52
2022-08-17T10:03:29.857Z,57.22
2022-08-17T10:06:13.145Z,57.12
2022-08-17T10:08:52.284Z,56.50
2022-08-17T10:11:51.606Z,56.41
2022-08-17T10:14:53.607Z,57.11
2022-08-17T10:17:30.102Z,56.47
2022-08-17T10:20:06.519Z,55.09
2022-08-17T10:23:00.461Z,55.43
2022-08-17T10:25:55.259Z,55.35
2022-08-17T10:28:30.061Z,55.83
2022-08-17T10:31:23.395Z,56.07
2022-08-17T10:33:59.723Z,55.56
2022-08-17T10:36:41.383Z,55.63
2022-08-17T10:39:16.885Z,56.60
2022-08-17T10:41:50.236Z,56.25
2022-08-17T10:44:39.481Z,57.19
2022-08-17T10:47:17.561Z,55.08
2022-08-17T10:49:53.549Z,55.48
2022-08-17T10:52:19.875Z,55.61
2022-08-17T10:54:47.462Z,54.78
2022-08-17T10:57:29.112Z,54.84
2022-08-17T10:59:56.900Z,54.75
2022-08-17T11:02:52.797Z,55.12
2022-08-17T11:05:43.782Z,55.04
2022-08-17T11:08:33.320Z,54.83
2022-08-17T11:11:20.871Z,54.21
2022-08-17T11:13:59.304Z,54.17
2022-08-17T11:16:56.961Z,54.21
2022-08-17T11:19:55.308Z,54.01
2022-08-17T11:23:00.283Z,52.64
2022-08-17T11:25:38.796Z,52.78
2022-08-17T11:28:20.737Z,53.00
2022-08-17T11:31:38.044Z,51.68
2022-08-17T11:34:26.303Z,51.17
2022-08-17T11:37:35.147Z,51.25
2022-08-17T11:40:24.624Z,52.43
2022-08-17T11:43:25.643Z,52.23
2022-08-17T11:46:02.152Z,51.74
2022-08-17T11:49:05.420Z,50.95
2022-08-17T11:52:04.148Z,51.98
2022-08-17T11:54:33.258Z,52.54
2022-08-17T11:57:21.662Z,50.75
2022-08-17T11:59:48.041Z,50.47
2022-08-17T12:02:32.853Z,50.51
2022-08-17T12:05:14.340Z,51.27
2022-08-17T12:08:03.093Z,49.89
2022-08-17T12:10:32.515Z,49.03
2022-08-17T12:13:06.595Z,48.74
2022-08-17T12:15:41.246Z,49.13
2022-08-17T12:18:07.798Z,50.34
2022-08-17T12:20:42.459Z,50.54
2022-08-17T12:23:28.326Z,49.69
2022-08-17T12:26:01.151Z,49.80
2022-08-17T12:28:30.622Z,51.48
2022-08-17T12:31:17.786Z,51.13
2022-08-17T12:33:46.356Z,51.87
2022-08-17T12:36:21.252Z,52.23
2022-08-17T12:38:54.004Z,49.90
2022-08-17T12:41:35.360Z,52.46
2022-08-17T12:44:14.616Z,52.34
2022-08-17T12:47:04.493Z,50.99
2022-08-17T12:49:35.381Z,50.98
2022-08-17T12:52:12.187Z,51.29
2022-08-17T12:54:59.521Z,50.99
2022-08-17T12:57:42.319Z,52.12
2022-08-17T13:00:15.676Z,51.49
2022-08-17T13:02:57.885Z,51.58
2022-08-17T13:05:28.702Z,51.64
2022-08-17T13:07:59.043Z,50.59
2022-08-17T13:10:32.702Z,51.27
2022-08-17T13:13:04.858Z,51.41
2022-08-17T13:15:44.920Z,49.79
2022-08-17T13:18:36.149Z,48.82
2022-08-17T13:21:02.609Z,49.78
2022-08-17T13:23:31.388Z,50.58
2022-08-17T13:26:06.204Z,48.87
2022-08-17T13:28:35.933Z,47.83
2022-08-17T13:31:32.823Z,47.22
2022-08-17T13:34:24.426Z,48.64
2022-08-17T13:37:26.035Z,48.40
2022-08-17T13:40:13.139Z,49.15
2022-08-17T13:42:50.363Z,49.39
2022-08-17T13:45:35.307Z,50.43
2022-08-17T13:48:12.346Z,49.38
2022-08-17T13:50:55.875Z,49.29
2022-08-17T13:53:35.911Z,50.95
2022-08-17T13:56:33.448Z,51.28
2022-08-17T13:59:00.546Z,51.64
2022-08-17T14:01:53.623Z,53.43
2022-08-17T14:04:24.574Z,52.94
2022-08-17T14:06:56.927Z,52.88
2022-08-17T14:09:37.000Z,53.13
2022-08-17T14:12:08.803Z,54.06
2022-08-17T14:14:36.221Z,55.36
2022-08-17T14:17:03.337Z,55.46
2022-08-17T14:19:29.793Z,56.10
2022-08-17T14:21:58.960Z,57.23
2022-08-17T14:24:31.754Z,59.02
2022-08-17T14:27:00.161Z,58.16
2022-08-17T14:29:28.512Z,59.43
2022-08-17T14:31:56.410Z,58.75
2022-08-17T14:34:24.884Z,58.41
2022-08-17T14:36:52.304Z,59.06
2022-08-17T14:39:19.169Z,58.90
2022-08-17T14:41:46.109Z,58.91
2022-08-17T14:44:13.110Z,58.85
2022-08-17T14:46:41.656Z,60.11
2022-08-17T14:49:13.377Z,61.18
2022-08-17T14:51:46.591Z,60.64
2022-08-17T14:54:34.164Z,61.31
2022-08-17T14:57:24.662Z,61.36
2022-08-17T14:59:56.634Z,61.42
2022-08-17T15:02:30.265Z,60.82
2022-08-17T15:05:05.218Z,60.85
2022-08-17T15:07:32.003Z,60.61
2022-08-17T15:12:40.710Z,60.90
2022-08-17T15:15:13.257Z,60.72
2022-08-17T15:17:53.887Z,60.43
2022-08-17T15:23:18.992Z,59.58
2022-08-17T15:25:48.885Z,60.67
2022-08-17T19:07:24.548Z,87.09
2022-08-17T19:10:20.337Z,93.54
2022-08-17T19:13:13.867Z,98.17
2022-08-17T19:16:11.610Z,100.00
2022-08-17T19:18:40.471Z,100.00
2022-08-17T19:21:21.426Z,100.00
2022-08-17T19:23:55.462Z,100.00
2022-08-17T19:26:53.853Z,100.00
2022-08-17T19:29:19.516Z,100.00
2022-08-17T19:31:49.175Z,100.00
2022-08-17T19:34:30.073Z,100.00
2022-08-17T19:37:06.863Z,100.00
2022-08-17T19:39:43.386Z,100.00
2022-08-17T19:42:37.071Z,100.00
2022-08-17T19:45:28.089Z,100.00
2022-08-17T19:48:03.486Z,100.00
2022-08-17T19:50:41.409Z,100.00
2022-08-17T19:53:20.533Z,100.00
2022-08-17T19:55:53.888Z,100.00
2022-08-17T19:58:36.745Z,100.00
2022-08-17T20:01:07.650Z,100.00
2022-08-17T20:03:52.725Z,100.00
2022-08-17T20:06:21.180Z,100.00
2022-08-17T20:09:01.163Z,100.00
2022-08-17T20:11:33.637Z,100.00
2022-08-17T20:14:20.310Z,100.00
2022-08-17T20:16:46.965Z,100.00
2022-08-17T20:19:36.679Z,100.00
2022-08-17T20:22:52.130Z,100.00
2022-08-17T20:25:49.673Z,100.00
2022-08-17T20:28:38.789Z,100.00
2022-08-17T20:31:41.997Z,100.00
2022-08-17T20:34:33.708Z,100.00
2022-08-17T20:37:15.131Z,100.00
2022-08-17T20:39:45.784Z,100.00
2022-08-17T20:42:15.252Z,100.00
2022-08-17T20:44:43.024Z,100.00
2022-08-17T20:47:26.971Z,100.00
2022-08-17T20:50:25.284Z,100.00
2022-08-17T20:52:54.128Z,100.00
2022-08-17T20:55:36.268Z,100.00
2022-08-17T20:58:30.631Z,100.00
2022-08-17T21:00:57.527Z,100.00
2022-08-17T21:03:23.959Z,100.00
2022-08-17T21:06:17.518Z,100.00
2022-08-17T21:08:57.807Z,100.00
2022-08-17T21:11:56.696Z,100.00
2022-08-17T21:14:31.702Z,100.00
2022-08-17T21:17:04.702Z,100.00
2022-08-17T21:19:44.334Z,100.00
2022-08-17T21:22:57.916Z,100.00
2022-08-17T21:25:34.018Z,100.00
2022-08-17T21:28:33.804Z,100.00
2022-08-17T21:31:08.332Z,100.00
2022-08-17T21:33:38.266Z,100.00
2022-08-17T21:36:14.101Z,100.00
2022-08-17T21:38:48.747Z,100.00
2022-08-17T21:41:34.780Z,100.00
2022-08-17T21:44:10.851Z,100.00
2022-08-17T21:46:42.703Z,100.00
2022-08-17T21:49:16.697Z,100.00
2022-08-17T21:51:54.824Z,100.00
2022-08-17T21:54:27.211Z,100.00
2022-08-17T21:56:54.212Z,100.00
2022-08-17T21:59:28.089Z,100.00
2022-08-17T22:01:57.834Z,100.00
2022-08-17T22:04:36.575Z,100.00
2022-08-17T22:07:06.423Z,100.00
2022-08-17T22:09:40.312Z,100.00
2022-08-17T22:12:09.025Z,100.00
2022-08-17T22:14:52.090Z,100.00
2022-08-17T22:17:26.282Z,100.00
2022-08-17T22:20:15.795Z,100.00
2022-08-17T22:23:03.959Z,100.00
2022-08-17T22:25:33.005Z,100.00
2022-08-17T22:28:01.886Z,100.00
2022-08-17T22:30:57.562Z,100.00
2022-08-17T22:33:33.260Z,100.00
2022-08-17T22:36:35.208Z,100.00
2022-08-17T22:39:10.488Z,100.00
2022-08-17T22:41:57.084Z,100.00
2022-08-17T22:44:29.431Z,100.00
2022-08-17T22:47:14.643Z,100.00
2022-08-17T22:49:53.182Z,100.00
2022-08-17T22:52:32.864Z,100.00
2022-08-17T22:55:34.949Z,100.00
2022-08-17T22:58:27.998Z,100.00
2022-08-17T23:00:54.582Z,100.00
2022-08-17T23:03:27.061Z,100.00
2022-08-17T23:06:10.942Z,100.00
2022-08-17T23:08:54.549Z,100.00
2022-08-17T23:11:43.007Z,100.00
2022-08-17T23:14:14.377Z,100.00
2022-08-17T23:16:44.160Z,100.00
2022-08-17T23:19:16.386Z,100.00
2022-08-17T23:21:44.725Z,100.00
2022-08-17T23:24:16.947Z,100.00
2022-08-17T23:26:43.385Z,100.00
2022-08-17T23:29:09.911Z,100.00
2022-08-17T23:31:45.697Z,100.00
2022-08-17T23:34:14.853Z,100.00
2022-08-17T23:36:41.912Z,100.00
2022-08-17T23:39:08.247Z,100.00
2022-08-17T23:41:38.530Z,100.00
2022-08-17T23:44:06.237Z,100.00
2022-08-17T23:46:32.750Z,100.00
2022-08-17T23:48:59.422Z,100.00
2022-08-17T23:51:37.239Z,100.00
2022-08-17T23:54:43.611Z,100.00
2022-08-17T23:57:12.652Z,100.00
2022-08-17T23:59:39.663Z,100.00
